Time;durP1;ratioP1;P1;durP2;ratioP2;P2;SDS_P1;SDS_P2;PMS_P1;PMS_P2;Temp;Humidity;BMP_temperature;BMP_pressure;BME280_temperature;BME280_humidity;BME280_pressure;Samples;Min_cycle;Max_cycle;Signal;HPM_P1;HPM_P2
2021/08/15 00:01:59;;;;;;;11.52;6.15;;;17.50;99.90;;;;;;5010846;28;20111;-74
2021/08/15 00:04:24;;;;;;;6.65;5.60;;;17.70;99.90;;;;;;5009504;28;20022;-74
2021/08/15 00:06:52;;;;;;;6.78;5.35;;;18.00;99.90;;;;;;4992179;28;20030;-74
2021/08/15 00:09:18;;;;;;;8.05;5.47;;;17.80;99.90;;;;;;4991789;28;20027;-74
2021/08/15 00:11:44;;;;;;;11.38;6.93;;;17.70;99.90;;;;;;4991495;28;20045;-74
2021/08/15 00:14:09;;;;;;;10.50;7.10;;;17.40;99.90;;;;;;4991823;28;20024;-74
2021/08/15 00:16:37;;;;;;;7.97;5.68;;;17.20;99.90;;;;;;4991711;28;20027;-74
2021/08/15 00:19:05;;;;;;;6.45;5.70;;;17.30;99.90;;;;;;4991912;28;20029;-74
2021/08/15 00:21:36;;;;;;;8.73;6.25;;;17.30;99.90;;;;;;4991876;28;20037;-74
2021/08/15 00:24:03;;;;;;;8.55;5.53;;;17.40;99.90;;;;;;4991924;28;20113;-74
2021/08/15 00:26:29;;;;;;;9.30;5.75;;;17.50;99.90;;;;;;4991993;28;20081;-74
2021/08/15 00:28:54;;;;;;;7.25;5.80;;;17.60;99.90;;;;;;4991840;28;20497;-74
2021/08/15 00:31:20;;;;;;;6.57;5.20;;;17.60;99.90;;;;;;4991996;28;20149;-74
2021/08/15 00:33:45;;;;;;;8.43;5.72;;;17.40;99.90;;;;;;4992154;28;20030;-74
2021/08/15 00:36:11;;;;;;;6.93;5.55;;;17.50;99.90;;;;;;4988627;28;20551;-74
2021/08/15 00:38:36;;;;;;;7.80;5.50;;;17.50;99.90;;;;;;4991827;28;20046;-73
2021/08/15 00:41:02;;;;;;;10.23;5.78;;;17.70;99.90;;;;;;4991578;28;20049;-74
2021/08/15 00:43:31;;;;;;;6.68;5.70;;;17.70;99.90;;;;;;4991792;28;20125;-74
2021/08/15 00:45:57;;;;;;;10.45;5.38;;;17.50;99.90;;;;;;4991581;28;20018;-74
2021/08/15 00:48:23;;;;;;;6.53;5.18;;;17.40;99.90;;;;;;4994770;28;20511;-74
2021/08/15 00:50:48;;;;;;;6.18;5.45;;;17.50;99.90;;;;;;5001817;28;20049;-73
2021/08/15 00:53:14;;;;;;;8.38;5.85;;;17.40;99.90;;;;;;4994382;28;20034;-74
2021/08/15 00:55:39;;;;;;;9.55;5.80;;;17.30;99.90;;;;;;5004305;28;20038;-75
2021/08/15 00:58:08;;;;;;;7.97;5.82;;;17.20;99.90;;;;;;5001073;28;20030;-75
2021/08/15 01:00:37;;;;;;;7.85;5.93;;;17.30;99.90;;;;;;5000248;28;20030;-75
2021/08/15 01:03:03;;;;;;;7.45;5.80;;;17.20;99.90;;;;;;4993861;28;20022;-74
2021/08/15 01:05:29;;;;;;;7.47;5.65;;;17.20;99.90;;;;;;4993853;28;20532;-74
2021/08/15 01:07:55;;;;;;;7.28;5.22;;;17.20;99.90;;;;;;4993541;28;20362;-74
2021/08/15 01:10:20;;;;;;;7.57;5.65;;;17.20;99.90;;;;;;4994917;28;20037;-75
2021/08/15 01:12:46;;;;;;;11.15;6.55;;;17.10;99.90;;;;;;4993468;28;20025;-76
2021/08/15 01:15:13;;;;;;;10.93;7.90;;;16.90;99.90;;;;;;4994631;28;20445;-76
2021/08/15 01:17:40;;;;;;;8.18;5.97;;;16.50;99.90;;;;;;4993480;28;20072;-75
2021/08/15 01:20:07;;;;;;;7.55;5.72;;;16.70;99.90;;;;;;4994754;28;20133;-75
2021/08/15 01:22:43;;;;;;;8.15;5.53;;;16.70;99.90;;;;;;4994337;28;20065;-75
2021/08/15 01:25:09;;;;;;;;;;;16.70;99.90;;;;;;4994848;28;20026;-75
2021/08/15 01:27:37;;;;;;;8.52;5.80;;;16.80;99.90;;;;;;4994468;28;20316;-75
2021/08/15 01:30:07;;;;;;;5.70;5.10;;;16.70;99.90;;;;;;4994475;28;20459;-75
2021/08/15 01:32:33;;;;;;;6.28;5.43;;;16.80;99.90;;;;;;4994189;28;20034;-75
2021/08/15 01:35:02;;;;;;;10.77;6.50;;;16.80;99.90;;;;;;4994254;28;20026;-75
2021/08/15 01:37:28;;;;;;;9.05;7.13;;;16.40;99.90;;;;;;4994383;28;20061;-75
2021/08/15 01:39:53;;;;;;;9.65;6.90;;;15.90;99.90;;;;;;4994341;28;20026;-76
2021/08/15 01:42:19;;;;;;;8.18;6.05;;;16.10;99.90;;;;;;4994291;28;20032;-76
2021/08/15 01:44:45;;;;;;;6.88;6.13;;;16.50;99.90;;;;;;4994025;28;20030;-76
2021/08/15 01:47:10;;;;;;;8.02;6.13;;;16.60;99.90;;;;;;4994218;28;20029;-75
2021/08/15 01:49:36;;;;;;;8.13;6.55;;;16.60;99.90;;;;;;4985981;28;20035;-76
2021/08/15 01:52:01;;;;;;;8.10;6.75;;;16.80;99.90;;;;;;4992663;28;20432;-76
2021/08/15 01:54:27;;;;;;;9.73;6.88;;;16.90;99.90;;;;;;4993882;28;20433;-76
2021/08/15 01:56:52;;;;;;;8.15;6.18;;;17.00;99.90;;;;;;4992873;28;20113;-76
2021/08/15 01:59:18;;;;;;;10.80;6.70;;;17.00;99.90;;;;;;4995684;28;20058;-76
2021/08/15 02:01:43;;;;;;;7.03;6.15;;;16.90;99.90;;;;;;5010411;28;20519;-76
2021/08/15 02:04:09;;;;;;;9.60;6.40;;;16.70;99.90;;;;;;5000168;28;20569;-75
2021/08/15 02:06:34;;;;;;;7.75;5.70;;;16.60;99.90;;;;;;4993599;28;20485;-75
2021/08/15 02:09:00;;;;;;;6.72;5.63;;;16.90;99.90;;;;;;4997708;28;20358;-75
2021/08/15 02:11:25;;;;;;;10.45;5.97;;;17.00;99.90;;;;;;4993551;28;20097;-76
2021/08/15 02:13:51;;;;;;;7.57;6.15;;;17.00;99.90;;;;;;4993740;28;20436;-76
2021/08/15 02:16:16;;;;;;;7.18;5.50;;;17.00;99.90;;;;;;4993435;28;20029;-75
2021/08/15 02:18:42;;;;;;;7.22;5.75;;;17.10;99.90;;;;;;4993681;28;20061;-75
2021/08/15 02:21:08;;;;;;;7.70;5.68;;;16.90;99.90;;;;;;4992043;28;20034;-75
2021/08/15 02:23:33;;;;;;;7.32;6.07;;;17.00;99.90;;;;;;4994132;28;20035;-74
2021/08/15 02:25:59;;;;;;;8.57;5.80;;;16.90;99.90;;;;;;5006568;28;20500;-74
2021/08/15 02:28:25;;;;;;;8.52;6.18;;;16.60;99.90;;;;;;4995046;28;20517;-74
2021/08/15 02:30:50;;;;;;;10.68;6.20;;;16.60;99.90;;;;;;4992961;28;20030;-74
2021/08/15 02:33:16;;;;;;;8.52;6.00;;;16.30;99.90;;;;;;4992834;28;20055;-74
2021/08/15 02:35:42;;;;;;;7.78;5.70;;;16.30;99.90;;;;;;4994534;28;20542;-74
2021/08/15 02:38:07;;;;;;;10.70;7.13;;;16.30;99.90;;;;;;4993020;28;20097;-73
2021/08/15 02:40:34;;;;;;;8.45;6.90;;;16.10;99.90;;;;;;4991713;28;20030;-73
2021/08/15 02:42:59;;;;;;;8.35;6.47;;;15.80;99.90;;;;;;4993163;28;20056;-74
2021/08/15 02:45:25;;;;;;;8.50;6.55;;;15.90;99.90;;;;;;4992883;28;20556;-75
2021/08/15 02:47:52;;;;;;;8.07;6.40;;;16.00;99.90;;;;;;4991811;28;20097;-74
2021/08/15 02:50:19;;;;;;;8.60;6.05;;;16.20;99.90;;;;;;4992724;28;20042;-74
2021/08/15 02:52:44;;;;;;;9.25;6.05;;;15.90;99.90;;;;;;4992808;28;20054;-75
2021/08/15 02:55:10;;;;;;;7.28;6.15;;;15.90;99.90;;;;;;4991451;28;20540;-75
2021/08/15 02:57:36;;;;;;;6.93;6.18;;;15.90;99.90;;;;;;4992886;28;20565;-75
2021/08/15 03:00:04;;;;;;;7.35;6.15;;;15.90;99.90;;;;;;4992829;28;20433;-75
2021/08/15 03:02:29;;;;;;;9.23;5.70;;;16.20;99.90;;;;;;4991397;28;20023;-75
2021/08/15 03:04:55;;;;;;;7.32;5.43;;;16.40;99.90;;;;;;4992606;28;20030;-74
2021/08/15 03:07:20;;;;;;;9.70;6.03;;;16.30;99.90;;;;;;4992246;28;20493;-74
2021/08/15 03:09:46;;;;;;;7.88;5.88;;;16.20;99.90;;;;;;5006318;28;20374;-74
2021/08/15 03:12:12;;;;;;;7.40;5.68;;;15.80;99.90;;;;;;5002481;28;20025;-74
2021/08/15 03:14:38;;;;;;;7.20;5.82;;;16.00;99.90;;;;;;5006464;28;20019;-74
2021/08/15 03:17:04;;;;;;;8.32;6.03;;;16.00;99.90;;;;;;4989566;28;20116;-75
2021/08/15 03:19:30;;;;;;;8.75;6.25;;;16.00;99.90;;;;;;4992528;28;20065;-74
2021/08/15 03:21:55;;;;;;;7.95;6.10;;;16.10;99.90;;;;;;4992473;28;20116;-75
2021/08/15 03:24:21;;;;;;;8.23;6.32;;;16.20;99.90;;;;;;4992179;28;20612;-74
2021/08/15 03:26:47;;;;;;;7.97;6.32;;;16.00;99.90;;;;;;4992425;28;20040;-74
2021/08/15 03:29:14;;;;;;;8.27;6.10;;;15.80;99.90;;;;;;4987048;28;20370;-74
2021/08/15 03:31:40;;;;;;;7.28;6.15;;;15.70;99.90;;;;;;4992660;28;20134;-74
2021/08/15 03:34:06;;;;;;;8.32;6.45;;;15.70;99.90;;;;;;4990997;28;20022;-75
2021/08/15 03:36:31;;;;;;;7.85;6.70;;;15.20;99.90;;;;;;4992225;28;20029;-75
2021/08/15 03:38:57;;;;;;;10.70;7.20;;;14.80;99.90;;;;;;4992348;28;20046;-75
2021/08/15 03:41:22;;;;;;;7.22;6.38;;;14.80;99.90;;;;;;5003846;28;20030;-75
2021/08/15 03:43:48;;;;;;;7.22;6.05;;;15.00;99.90;;;;;;5012866;28;20034;-74
2021/08/15 03:46:13;;;;;;;8.95;6.70;;;15.20;99.90;;;;;;5012176;28;20038;-74
2021/08/15 03:48:39;;;;;;;7.68;5.95;;;15.30;99.90;;;;;;5011912;28;20105;-75
2021/08/15 03:51:05;;;;;;;10.02;6.45;;;15.30;99.90;;;;;;5011664;28;20038;-74
2021/08/15 03:53:30;;;;;;;6.90;6.05;;;15.20;99.90;;;;;;5011789;28;20050;-74
2021/08/15 03:55:56;;;;;;;7.90;6.10;;;15.30;99.90;;;;;;5011862;28;20435;-73
2021/08/15 03:58:21;;;;;;;8.77;7.00;;;15.30;99.90;;;;;;5011781;28;20029;-74
2021/08/15 04:00:47;;;;;;;9.07;7.13;;;15.00;99.90;;;;;;5011714;28;20076;-75
2021/08/15 04:03:13;;;;;;;10.38;6.78;;;14.80;99.90;;;;;;5011648;28;20030;-74
2021/08/15 04:05:40;;;;;;;7.78;6.40;;;14.80;99.90;;;;;;5011590;28;20029;-75
2021/08/15 04:08:07;;;;;;;8.38;6.40;;;14.80;99.90;;;;;;5010641;28;20103;-76
2021/08/15 04:10:33;;;;;;;7.75;5.78;;;14.80;99.90;;;;;;5001013;28;20559;-75
2021/08/15 04:12:59;;;;;;;14.35;6.22;;;14.90;99.90;;;;;;4991699;28;20030;-74
2021/08/15 04:15:24;;;;;;;7.40;6.22;;;14.90;99.90;;;;;;4991675;28;20392;-74
2021/08/15 04:17:50;;;;;;;9.82;7.10;;;15.00;99.90;;;;;;4991925;28;20066;-75
2021/08/15 04:20:16;;;;;;;12.00;7.13;;;15.10;99.90;;;;;;4991928;28;20038;-74
2021/08/15 04:22:41;;;;;;;11.13;6.63;;;15.20;99.90;;;;;;4991791;28;20066;-73
2021/08/15 04:25:07;;;;;;;9.88;7.07;;;14.90;99.90;;;;;;4992443;28;20027;-73
2021/08/15 04:27:33;;;;;;;7.35;6.05;;;14.70;99.90;;;;;;4995719;28;20129;-74
2021/08/15 04:29:58;;;;;;;8.40;6.35;;;14.90;99.90;;;;;;4993307;28;20484;-73
2021/08/15 04:32:24;;;;;;;11.50;6.38;;;14.80;99.90;;;;;;4997720;28;20019;-74
2021/08/15 04:34:49;;;;;;;8.05;6.70;;;14.90;99.90;;;;;;4995451;28;20029;-74
2021/08/15 04:37:17;;;;;;;7.95;6.35;;;15.00;99.90;;;;;;4995636;28;20081;-74
2021/08/15 04:39:44;;;;;;;9.25;7.10;;;15.20;99.90;;;;;;4995615;28;20030;-74
2021/08/15 04:42:09;;;;;;;10.23;6.57;;;15.00;99.90;;;;;;5008385;28;20110;-74
2021/08/15 04:44:35;;;;;;;12.43;6.95;;;15.00;99.90;;;;;;4993997;28;20117;-73
2021/08/15 04:47:00;;;;;;;8.35;7.22;;;14.90;99.90;;;;;;4995586;28;20105;-73
2021/08/15 04:49:26;;;;;;;8.48;6.65;;;14.60;99.90;;;;;;5007101;28;20076;-73
2021/08/15 04:51:54;;;;;;;8.95;6.60;;;14.70;99.90;;;;;;4996805;28;20028;-73
2021/08/15 04:54:23;;;;;;;9.07;7.82;;;14.80;99.90;;;;;;4995202;28;20018;-73
2021/08/15 04:56:49;;;;;;;8.85;6.93;;;14.70;99.90;;;;;;4995268;28;20015;-73
2021/08/15 04:59:14;;;;;;;8.48;6.97;;;14.40;99.90;;;;;;5007931;28;20057;-73
2021/08/15 05:01:40;;;;;;;11.88;6.82;;;14.70;99.90;;;;;;4991898;28;20037;-73
2021/08/15 05:04:05;;;;;;;9.18;7.82;;;15.20;99.90;;;;;;4995104;28;20030;-73
2021/08/15 05:06:33;;;;;;;11.40;7.40;;;15.10;99.90;;;;;;5008316;28;20023;-73
2021/08/15 05:08:58;;;;;;;8.70;7.40;;;15.00;99.90;;;;;;5007825;28;20037;-73
2021/08/15 05:11:24;;;;;;;8.85;7.22;;;15.00;99.90;;;;;;4995361;28;20030;-71
2021/08/15 05:13:49;;;;;;;8.82;7.40;;;15.30;99.90;;;;;;4995130;28;20026;-73
2021/08/15 05:16:15;;;;;;;8.82;7.13;;;15.40;99.90;;;;;;4995321;28;20551;-73
2021/08/15 05:18:41;;;;;;;9.45;7.50;;;15.10;99.90;;;;;;5006102;28;20060;-73
2021/08/15 05:21:07;;;;;;;9.63;7.25;;;14.80;99.90;;;;;;5009058;28;20030;-73
2021/08/15 05:23:33;;;;;;;9.63;6.72;;;14.90;99.90;;;;;;4995052;28;20084;-73
2021/08/15 05:25:58;;;;;;;9.65;6.75;;;15.00;99.90;;;;;;4993521;28;20111;-73
2021/08/15 05:28:24;;;;;;;9.30;7.80;;;15.30;99.90;;;;;;5013557;28;20069;-73
2021/08/15 05:30:49;;;;;;;10.32;7.25;;;15.30;99.90;;;;;;5008859;28;20037;-73
2021/08/15 05:33:15;;;;;;;12.50;7.07;;;15.40;99.90;;;;;;4994911;28;20081;-73
2021/08/15 05:35:40;;;;;;;8.25;6.45;;;15.70;99.90;;;;;;4994788;28;20034;-74
2021/08/15 05:38:06;;;;;;;9.20;7.15;;;15.50;99.90;;;;;;4994588;28;20482;-73
2021/08/15 05:40:31;;;;;;;9.38;7.18;;;15.40;99.90;;;;;;4993337;28;20500;-73
2021/08/15 05:42:57;;;;;;;10.05;7.13;;;15.50;99.90;;;;;;4994533;28;20518;-73
2021/08/15 05:45:23;;;;;;;10.45;7.30;;;16.00;99.90;;;;;;4999123;28;20396;-73
2021/08/15 05:47:48;;;;;;;9.88;7.60;;;16.10;99.90;;;;;;5002525;28;20026;-73
2021/08/15 05:50:13;;;;;;;8.00;7.20;;;16.10;99.90;;;;;;4992862;28;20467;-73
2021/08/15 05:52:39;;;;;;;11.27;8.57;;;16.10;99.90;;;;;;4994310;28;20022;-72
2021/08/15 05:55:06;;;;;;;9.95;7.82;;;16.10;99.90;;;;;;5011846;28;20029;-73
2021/08/15 05:57:32;;;;;;;10.02;7.43;;;16.30;99.90;;;;;;5002626;28;20054;-72
2021/08/15 05:59:58;;;;;;;7.55;6.72;;;16.50;99.90;;;;;;4998703;28;20029;-72
2021/08/15 06:02:23;;;;;;;8.95;6.95;;;16.60;99.90;;;;;;5002023;28;20097;-72
2021/08/15 06:04:49;;;;;;;10.13;7.45;;;17.00;99.90;;;;;;4993746;28;20035;-73
2021/08/15 06:07:14;;;;;;;11.32;7.18;;;17.20;99.90;;;;;;5004231;28;20037;-71
2021/08/15 06:09:40;;;;;;;8.63;6.63;;;17.50;99.90;;;;;;4995524;28;20046;-71
2021/08/15 06:12:06;;;;;;;9.45;7.07;;;17.80;99.90;;;;;;4993634;28;20370;-70
2021/08/15 06:14:33;;;;;;;8.77;6.68;;;18.00;99.90;;;;;;5006733;28;20133;-72
2021/08/15 06:16:58;;;;;;;14.80;7.40;;;18.00;99.90;;;;;;4993886;28;20100;-72
2021/08/15 06:19:24;;;;;;;11.35;7.93;;;18.10;99.90;;;;;;4998227;28;20105;-72
2021/08/15 06:21:50;;;;;;;11.38;7.93;;;18.10;99.90;;;;;;5002034;28;20022;-72
2021/08/15 06:24:16;;;;;;;9.70;7.28;;;18.10;99.90;;;;;;4993617;28;20033;-72
2021/08/15 06:26:41;;;;;;;8.32;7.10;;;18.30;99.90;;;;;;4993399;28;20026;-72
2021/08/15 06:29:07;;;;;;;10.38;8.40;;;18.50;99.90;;;;;;4997702;28;20033;-72
2021/08/15 06:31:33;;;;;;;10.93;9.68;;;18.60;99.90;;;;;;5001056;28;20030;-72
2021/08/15 06:33:58;;;;;;;11.88;8.20;;;18.70;99.90;;;;;;4993453;28;20023;-72
2021/08/15 06:36:24;;;;;;;10.82;8.32;;;18.70;99.90;;;;;;4987063;28;20400;-73
2021/08/15 06:38:50;;;;;;;15.15;9.27;;;18.90;99.90;;;;;;5010302;28;20035;-72
2021/08/15 06:41:15;;;;;;;13.13;9.23;;;19.00;99.90;;;;;;5002627;28;20126;-72
2021/08/15 06:43:41;;;;;;;11.02;8.00;;;19.00;99.90;;;;;;4993262;28;20045;-72
2021/08/15 06:46:06;;;;;;;9.88;8.18;;;18.80;99.90;;;;;;4991739;28;20504;-72
2021/08/15 06:48:32;;;;;;;13.98;8.57;;;18.90;99.90;;;;;;4996152;28;20026;-71
2021/08/15 06:50:58;;;;;;;17.25;8.40;;;19.10;99.90;;;;;;5002920;28;20065;-71
2021/08/15 06:53:25;;;;;;;12.63;8.07;;;19.10;99.90;;;;;;4995846;28;20068;-72
2021/08/15 06:55:50;;;;;;;11.80;8.35;;;19.20;99.90;;;;;;5011213;28;20018;-71
2021/08/15 06:58:17;;;;;;;11.63;8.30;;;19.20;99.90;;;;;;4999202;28;20037;-73
2021/08/15 07:00:43;;;;;;;8.80;7.90;;;19.40;99.90;;;;;;5011240;28;20522;-73
2021/08/15 07:03:09;;;;;;;9.57;8.05;;;19.40;99.90;;;;;;5012441;28;20038;-74
2021/08/15 07:05:35;;;;;;;10.77;7.85;;;19.50;99.90;;;;;;5002836;28;20034;-73
2021/08/15 07:08:00;;;;;;;13.95;7.93;;;19.60;99.90;;;;;;4996834;28;20068;-73
2021/08/15 07:10:27;;;;;;;11.60;7.90;;;19.60;99.90;;;;;;5003349;28;20030;-75
2021/08/15 07:12:54;;;;;;;8.65;7.40;;;19.70;99.90;;;;;;5006228;28;20022;-75
2021/08/15 07:15:21;;;;;;;7.68;6.70;;;19.70;99.90;;;;;;4992633;28;20481;-75
2021/08/15 07:17:47;;;;;;;10.50;7.70;;;19.60;99.90;;;;;;5006199;28;20097;-75
2021/08/15 07:20:13;;;;;;;8.82;7.40;;;19.60;99.90;;;;;;5002815;28;20172;-75
2021/08/15 07:22:38;;;;;;;11.35;7.82;;;19.60;99.90;;;;;;4999056;28;20078;-75
2021/08/15 07:25:05;;;;;;;12.02;9.00;;;19.70;99.90;;;;;;5009915;28;20493;-75
2021/08/15 07:27:32;;;;;;;9.98;7.93;;;19.70;99.90;;;;;;4998834;28;20038;-75
2021/08/15 07:29:57;;;;;;;10.35;8.82;;;19.90;99.90;;;;;;5000623;28;20022;-75
2021/08/15 07:32:23;;;;;;;11.40;7.97;;;19.80;99.90;;;;;;5004142;28;20165;-74
2021/08/15 07:34:48;;;;;;;11.27;8.30;;;20.10;99.90;;;;;;4992062;28;20050;-75
2021/08/15 07:37:14;;;;;;;11.63;9.25;;;20.20;99.90;;;;;;4996822;28;20029;-75
2021/08/15 07:39:39;;;;;;;10.77;8.82;;;20.30;99.90;;;;;;5000890;28;20033;-71
2021/08/15 07:42:05;;;;;;;11.75;9.05;;;20.40;99.90;;;;;;5010120;28;20133;-72
2021/08/15 07:44:30;;;;;;;11.18;9.30;;;20.50;99.90;;;;;;5000908;28;20025;-72
2021/08/15 07:46:56;;;;;;;13.05;9.25;;;20.40;99.90;;;;;;4995339;28;20100;-71
2021/08/15 07:49:21;;;;;;;11.05;8.93;;;20.40;99.90;;;;;;5011919;28;20030;-71
2021/08/15 07:51:47;;;;;;;12.05;9.05;;;20.60;99.90;;;;;;4994685;28;20056;-71
2021/08/15 07:54:13;;;;;;;10.52;9.43;;;20.70;99.90;;;;;;4992274;28;20029;-71
2021/08/15 07:56:38;;;;;;;14.27;9.00;;;20.80;99.90;;;;;;5009345;28;20027;-71
2021/08/15 07:59:04;;;;;;;13.25;9.75;;;20.90;99.90;;;;;;5001009;28;20030;-71
2021/08/15 08:01:29;;;;;;;12.30;9.63;;;20.90;99.90;;;;;;4994779;28;20040;-71
2021/08/15 08:03:55;;;;;;;11.25;9.18;;;20.90;99.90;;;;;;4996227;28;20049;-71
2021/08/15 08:06:20;;;;;;;13.35;9.57;;;21.10;99.90;;;;;;4996029;28;20030;-71
2021/08/15 08:08:47;;;;;;;12.52;8.85;;;21.20;99.90;;;;;;4996161;28;20037;-71
2021/08/15 08:11:13;;;;;;;14.82;9.38;;;21.30;99.90;;;;;;4996000;28;20027;-71
2021/08/15 08:13:39;;;;;;;9.80;8.63;;;21.40;99.90;;;;;;4993670;28;20034;-71
2021/08/15 08:16:04;;;;;;;11.70;9.05;;;21.80;99.90;;;;;;4995489;28;20030;-71
2021/08/15 08:18:30;;;;;;;10.82;8.38;;;21.90;99.90;;;;;;5006281;28;20127;-71
2021/08/15 08:20:56;;;;;;;10.40;9.23;;;21.90;99.90;;;;;;5013627;28;20022;-71
2021/08/15 08:23:22;;;;;;;12.38;9.50;;;21.90;99.90;;;;;;4995647;28;20057;-71
2021/08/15 08:25:48;;;;;;;9.75;8.23;;;21.90;99.90;;;;;;4995486;28;20030;-71
2021/08/15 08:28:13;;;;;;;11.18;7.70;;;22.10;99.90;;;;;;4995675;28;20072;-71
2021/08/15 08:30:39;;;;;;;10.43;7.93;;;22.10;99.90;;;;;;4995305;28;20026;-71
2021/08/15 08:33:05;;;;;;;12.57;8.30;;;22.00;99.90;;;;;;4995770;28;20093;-71
2021/08/15 08:35:31;;;;;;;9.52;7.85;;;22.20;99.90;;;;;;4995228;28;20489;-71
2021/08/15 08:37:57;;;;;;;8.60;7.70;;;22.50;99.90;;;;;;4995510;28;20022;-71
2021/08/15 08:40:22;;;;;;;10.20;8.35;;;22.40;99.90;;;;;;4995403;28;20053;-71
2021/08/15 08:42:49;;;;;;;13.57;7.93;;;22.60;99.90;;;;;;4995430;28;20027;-71
2021/08/15 08:45:20;;;;;;;11.25;7.82;;;22.70;99.90;;;;;;4995105;28;20117;-71
2021/08/15 08:47:50;;;;;;;9.02;7.70;;;22.60;99.90;;;;;;4995335;28;20030;-71
2021/08/15 08:50:16;;;;;;;10.10;7.65;;;22.70;99.90;;;;;;4999352;28;20034;-75
2021/08/15 08:52:43;;;;;;;12.52;7.72;;;23.00;99.90;;;;;;5014996;28;20064;-74
2021/08/15 08:55:09;;;;;;;12.95;8.32;;;23.10;99.90;;;;;;4997302;28;20029;-73
2021/08/15 08:57:35;;;;;;;9.32;7.28;;;23.40;99.90;;;;;;5005297;28;20025;-74
2021/08/15 09:00:01;;;;;;;10.85;8.13;;;23.40;99.90;;;;;;4995851;28;20380;-74
2021/08/15 09:02:27;;;;;;;11.35;7.07;;;23.30;99.90;;;;;;4995361;28;20026;-74
2021/08/15 09:04:52;;;;;;;9.82;7.10;;;23.40;99.90;;;;;;4995362;28;20026;-73
2021/08/15 09:07:20;;;;;;;9.15;6.70;;;23.30;99.90;;;;;;4995614;28;20030;-74
2021/08/15 09:09:57;;;;;;;10.02;7.13;;;23.40;99.90;;;;;;4994155;28;20065;-74
2021/08/15 09:12:43;;;;;;;9.13;6.78;;;23.60;99.90;;;;;;4993720;28;20026;-74
2021/08/15 09:15:13;;;;;;;11.05;6.72;;;23.70;99.90;;;;;;5005026;28;20014;-74
2021/08/15 09:17:40;;;;;;;10.68;6.13;;;23.90;99.90;;;;;;5001834;28;20026;-74
2021/08/15 09:20:08;;;;;;;10.48;6.00;;;24.00;99.90;;;;;;5004509;28;20473;-74
2021/08/15 09:22:35;;;;;;;8.80;6.53;;;24.00;99.90;;;;;;4999998;28;20033;-74
2021/08/15 09:25:11;;;;;;;9.15;6.15;;;23.90;99.90;;;;;;5002903;28;20650;-74
2021/08/15 09:27:42;;;;;;;8.38;6.50;;;23.90;99.90;;;;;;5008371;28;20030;-74
2021/08/15 09:30:22;;;;;;;8.23;6.22;;;24.10;99.90;;;;;;5007646;28;20092;-74
2021/08/15 09:32:54;;;;;;;7.82;5.78;;;24.30;99.90;;;;;;4991124;28;20358;-74
2021/08/15 09:35:21;;;;;;;6.75;5.53;;;24.10;99.90;;;;;;4998920;28;20026;-73
2021/08/15 09:38:13;;;;;;;6.30;5.55;;;24.20;99.90;;;;;;4994633;28;20085;-74
2021/08/15 09:40:50;;;;;;;9.30;5.68;;;24.30;99.90;;;;;;5007424;28;20034;-74
2021/08/15 09:43:23;;;;;;;8.20;5.70;;;24.40;99.90;;;;;;4994377;28;20101;-75
2021/08/15 09:45:58;;;;;;;9.77;5.80;;;24.40;99.90;;;;;;5000884;28;20056;-74
2021/08/15 09:48:31;;;;;;;9.63;5.93;;;24.30;99.90;;;;;;4999859;28;20030;-75
2021/08/15 09:51:23;;;;;;;7.20;6.05;;;24.40;99.90;;;;;;5010096;28;20030;-73
2021/08/15 09:54:00;;;;;;;9.23;6.00;;;24.40;99.90;;;;;;5005933;28;20030;-73
2021/08/15 09:56:36;;;;;;;9.57;5.93;;;24.50;99.90;;;;;;4999499;28;20380;-74
2021/08/15 09:59:09;;;;;;;9.23;6.40;;;24.60;99.90;;;;;;5003176;28;20023;-73
2021/08/15 10:01:35;;;;;;;8.52;5.97;;;24.70;99.90;;;;;;4992439;28;20527;-73
2021/08/15 10:04:01;;;;;;;7.57;6.05;;;24.60;99.90;;;;;;4994209;28;20097;-73
2021/08/15 10:06:27;;;;;;;7.90;5.68;;;24.90;99.90;;;;;;4997353;28;20109;-73
2021/08/15 10:08:54;;;;;;;9.25;6.15;;;25.20;99.90;;;;;;5003731;28;20033;-74
2021/08/15 10:11:19;;;;;;;7.53;5.72;;;25.20;99.90;;;;;;4993857;28;20026;-73
2021/08/15 10:13:45;;;;;;;8.45;5.20;;;25.30;99.90;;;;;;4993713;28;20362;-73
2021/08/15 10:16:11;;;;;;;7.63;6.30;;;25.50;99.90;;;;;;4998174;28;20053;-73
2021/08/15 10:18:43;;;;;;;6.75;5.80;;;25.70;99.90;;;;;;5002136;28;20101;-74
2021/08/15 10:21:18;;;;;;;8.88;5.88;;;25.60;99.90;;;;;;5006885;28;20030;-73
2021/08/15 10:23:44;;;;;;;7.47;6.00;;;25.80;99.90;;;;;;4991885;28;20026;-73
2021/08/15 10:26:25;;;;;;;8.50;6.07;;;25.90;99.90;;;;;;4987402;28;20088;-73
2021/08/15 10:28:51;;;;;;;7.75;5.82;;;25.60;99.90;;;;;;4998038;28;20575;-73
2021/08/15 10:31:17;;;;;;;9.60;6.13;;;25.60;99.90;;;;;;5000797;28;20476;-73
2021/08/15 10:33:54;;;;;;;12.00;6.35;;;25.70;99.90;;;;;;4999884;28;20033;-73
2021/08/15 10:36:27;;;;;;;13.82;6.40;;;25.70;99.90;;;;;;5005683;28;20096;-74
2021/08/15 10:38:56;;;;;;;9.40;5.78;;;25.70;99.90;;;;;;4997681;28;20069;-73
2021/08/15 10:41:54;;;;;;;6.72;5.60;;;25.70;99.90;;;;;;4993739;28;20041;-73
2021/08/15 10:44:21;;;;;;;9.65;6.53;;;26.10;99.90;;;;;;4977992;28;20039;-73
2021/08/15 10:47:13;;;;;;;8.35;6.65;;;26.20;99.90;;;;;;4989495;28;20470;-73
2021/08/15 10:50:02;;;;;;;10.07;6.43;;;26.10;99.90;;;;;;4985033;28;20056;-74
2021/08/15 10:52:36;;;;;;;8.40;5.97;;;26.20;99.90;;;;;;4986766;28;20033;-72
2021/08/15 10:55:05;;;;;;;9.57;6.20;;;26.10;99.90;;;;;;4997119;28;20018;-73
2021/08/15 10:58:03;;;;;;;7.57;6.10;;;26.20;99.90;;;;;;5012602;28;20018;-74
2021/08/15 11:00:28;;;;;;;9.80;5.97;;;26.30;99.90;;;;;;4993616;28;20046;-73
2021/08/15 11:02:55;;;;;;;7.95;5.93;;;26.50;99.90;;;;;;4993920;28;20033;-73
2021/08/15 11:05:36;;;;;;;7.85;5.68;;;26.80;99.90;;;;;;5001612;28;20168;-73
2021/08/15 11:08:02;;;;;;;10.95;6.40;;;26.80;99.90;;;;;;4992843;28;20460;-73
2021/08/15 11:11:06;;;;;;;8.45;5.90;;;26.90;99.90;;;;;;5003972;28;20152;-74
2021/08/15 11:13:32;;;;;;;10.57;6.10;;;26.90;99.90;;;;;;4983463;28;20030;-74
2021/08/15 11:16:22;;;;;;;7.22;5.85;;;26.90;99.90;;;;;;4992621;28;20080;-73
2021/08/15 11:19:20;;;;;;;9.15;6.45;;;26.90;99.90;;;;;;5005471;28;20022;-74
2021/08/15 11:22:04;;;;;;;9.88;6.05;;;27.30;99.90;;;;;;4981339;28;20038;-73
2021/08/15 11:24:31;;;;;;;7.30;6.05;;;27.40;99.90;;;;;;4990631;28;20065;-74
2021/08/15 11:26:58;;;;;;;7.45;6.15;;;27.40;99.90;;;;;;4990264;28;20019;-73
2021/08/15 11:29:25;;;;;;;8.82;6.35;;;27.40;99.90;;;;;;4995784;28;20026;-74
2021/08/15 11:31:52;;;;;;;9.02;6.20;;;27.50;99.90;;;;;;4992229;28;20041;-74
2021/08/15 11:34:18;;;;;;;9.25;6.63;;;27.50;99.90;;;;;;4991557;28;20030;-73
2021/08/15 11:36:53;;;;;;;9.45;6.80;;;28.00;99.90;;;;;;4996088;28;20065;-73
2021/08/15 11:39:18;;;;;;;7.67;6.27;;;27.70;99.90;;;;;;4991069;28;20117;-73
2021/08/15 11:41:44;;;;;;;11.98;6.65;;;27.80;99.90;;;;;;4991486;28;20073;-73
2021/08/15 11:44:10;;;;;;;8.35;6.55;;;27.90;99.90;;;;;;4991530;28;20034;-73
2021/08/15 11:46:35;;;;;;;12.40;7.20;;;28.20;99.90;;;;;;4995117;28;20062;-73
2021/08/15 11:49:01;;;;;;;9.60;6.28;;;28.40;99.90;;;;;;5003444;28;20365;-74
2021/08/15 11:51:26;;;;;;;8.50;6.50;;;28.50;99.90;;;;;;5009419;28;20034;-73
2021/08/15 11:53:52;;;;;;;9.07;6.85;;;28.50;99.90;;;;;;4992239;28;20026;-73
2021/08/15 11:56:20;;;;;;;8.93;6.57;;;28.50;99.90;;;;;;4993163;28;20026;-73
2021/08/15 11:58:50;;;;;;;8.07;6.68;;;28.80;99.90;;;;;;4992012;28;20076;-73
2021/08/15 12:01:17;;;;;;;9.25;7.25;;;28.70;99.90;;;;;;4991911;28;20038;-73
2021/08/15 12:03:58;;;;;;;8.05;6.70;;;28.70;99.90;;;;;;4989010;28;20029;-74
2021/08/15 12:06:24;;;;;;;8.70;6.38;;;29.20;99.90;;;;;;4994924;28;20170;-74
2021/08/15 12:08:50;;;;;;;9.98;7.28;;;29.10;99.90;;;;;;4991933;28;20102;-74
2021/08/15 12:11:21;;;;;;;9.95;6.45;;;28.80;99.90;;;;;;4996123;28;20037;-74
2021/08/15 12:13:47;;;;;;;9.45;6.82;;;28.80;99.90;;;;;;5011712;28;20369;-74
2021/08/15 12:16:14;;;;;;;8.65;6.40;;;29.10;99.90;;;;;;5001681;28;20090;-73
2021/08/15 12:18:51;;;;;;;8.02;6.20;;;29.40;99.90;;;;;;4996203;28;20019;-73
2021/08/15 12:21:21;;;;;;;10.63;6.72;;;29.40;99.90;;;;;;4991428;28;20031;-73
2021/08/15 12:23:56;;;;;;;9.35;6.47;;;29.80;99.90;;;;;;4991724;28;20058;-73
2021/08/15 12:26:25;;;;;;;8.40;6.63;;;29.60;99.90;;;;;;4991625;28;20030;-73
2021/08/15 12:28:59;;;;;;;7.65;6.90;;;30.10;99.90;;;;;;4991970;28;20041;-73
2021/08/15 12:31:28;;;;;;;9.10;7.50;;;29.80;99.90;;;;;;4991767;28;20536;-73
2021/08/15 12:34:23;;;;;;;8.60;7.03;;;30.10;99.90;;;;;;4991666;28;20025;-73
2021/08/15 12:36:51;;;;;;;9.50;6.43;;;30.70;99.90;;;;;;4981904;28;20031;-73
2021/08/15 12:39:29;;;;;;;6.65;6.00;;;30.40;99.90;;;;;;4990870;28;20354;-73
2021/08/15 12:42:05;;;;;;;9.05;6.97;;;30.60;99.90;;;;;;4991952;28;20018;-73
2021/08/15 12:44:45;;;;;;;10.68;6.65;;;30.00;99.90;;;;;;4981518;28;20030;-73
2021/08/15 12:47:11;;;;;;;9.82;6.68;;;30.10;99.90;;;;;;4993759;28;20030;-73